sensor_id;sensor_type;location;lat;lon;timestamp;P1;durP1;ratioP1;P2;durP2;ratioP2
32872;SDS011;19224;52.462;16.898;2023-05-10T00:02:17;7.75;;;5.12;;
32872;SDS011;19224;52.462;16.898;2023-05-10T00:04:47;13.80;;;5.55;;
32872;SDS011;19224;52.462;16.898;2023-05-10T00:07:18;9.28;;;5.60;;
32872;SDS011;19224;52.462;16.898;2023-05-10T00:09:48;14.00;;;6.50;;
32872;SDS011;19224;52.462;16.898;2023-05-10T00:12:18;11.65;;;5.75;;
32872;SDS011;19224;52.462;16.898;2023-05-10T00:14:48;10.13;;;5.42;;
32872;SDS011;19224;52.462;16.898;2023-05-10T00:17:19;10.50;;;5.58;;
32872;SDS011;19224;52.462;16.898;2023-05-10T00:19:49;10.43;;;5.45;;
32872;SDS011;19224;52.462;16.898;2023-05-10T00:22:19;11.43;;;5.67;;
32872;SDS011;19224;52.462;16.898;2023-05-10T00:24:49;10.48;;;5.37;;
32872;SDS011;19224;52.462;16.898;2023-05-10T00:27:19;7.58;;;5.35;;
32872;SDS011;19224;52.462;16.898;2023-05-10T00:29:49;8.55;;;5.42;;
32872;SDS011;19224;52.462;16.898;2023-05-10T00:32:19;15.45;;;6.12;;
32872;SDS011;19224;52.462;16.898;2023-05-10T00:34:49;12.37;;;5.42;;
32872;SDS011;19224;52.462;16.898;2023-05-10T00:37:20;11.60;;;5.33;;
32872;SDS011;19224;52.462;16.898;2023-05-10T00:39:50;15.50;;;5.62;;
32872;SDS011;19224;52.462;16.898;2023-05-10T00:42:20;11.63;;;5.75;;
32872;SDS011;19224;52.462;16.898;2023-05-10T00:44:51;10.55;;;5.62;;
32872;SDS011;19224;52.462;16.898;2023-05-10T00:47:21;8.45;;;5.40;;
32872;SDS011;19224;52.462;16.898;2023-05-10T00:49:52;11.53;;;4.75;;
32872;SDS011;19224;52.462;16.898;2023-05-10T00:52:23;8.85;;;5.53;;
32872;SDS011;19224;52.462;16.898;2023-05-10T00:54:54;8.53;;;5.53;;
32872;SDS011;19224;52.462;16.898;2023-05-10T00:57:25;10.43;;;5.42;;
32872;SDS011;19224;52.462;16.898;2023-05-10T00:59:55;8.70;;;5.30;;
32872;SDS011;19224;52.462;16.898;2023-05-10T01:02:26;9.58;;;5.20;;
32872;SDS011;19224;52.462;16.898;2023-05-10T01:04:58;8.85;;;5.37;;
32872;SDS011;19224;52.462;16.898;2023-05-10T01:07:31;11.15;;;5.15;;
32872;SDS011;19224;52.462;16.898;2023-05-10T01:10:01;10.08;;;5.10;;
32872;SDS011;19224;52.462;16.898;2023-05-10T01:12:32;11.00;;;5.20;;
32872;SDS011;19224;52.462;16.898;2023-05-10T01:15:07;7.22;;;4.85;;
32872;SDS011;19224;52.462;16.898;2023-05-10T01:17:40;10.70;;;5.42;;
32872;SDS011;19224;52.462;16.898;2023-05-10T01:20:13;11.03;;;4.90;;
32872;SDS011;19224;52.462;16.898;2023-05-10T01:25:58;8.33;;;5.05;;
32872;SDS011;19224;52.462;16.898;2023-05-10T01:32:06;10.28;;;5.10;;
32872;SDS011;19224;52.462;16.898;2023-05-10T01:34:49;12.95;;;5.20;;
32872;SDS011;19224;52.462;16.898;2023-05-10T01:37:40;12.07;;;5.03;;
32872;SDS011;19224;52.462;16.898;2023-05-10T01:43:26;13.68;;;5.60;;
32872;SDS011;19224;52.462;16.898;2023-05-10T01:46:01;9.23;;;5.25;;
32872;SDS011;19224;52.462;16.898;2023-05-10T01:48:54;9.65;;;4.62;;
32872;SDS011;19224;52.462;16.898;2023-05-10T01:51:29;12.53;;;5.97;;
32872;SDS011;19224;52.462;16.898;2023-05-10T01:54:08;8.58;;;5.28;;
32872;SDS011;19224;52.462;16.898;2023-05-10T01:56:41;10.23;;;5.50;;
32872;SDS011;19224;52.462;16.898;2023-05-10T01:59:15;9.35;;;4.90;;
32872;SDS011;19224;52.462;16.898;2023-05-10T02:01:48;9.48;;;5.50;;
32872;SDS011;19224;52.462;16.898;2023-05-10T02:04:20;9.55;;;5.05;;
32872;SDS011;19224;52.462;16.898;2023-05-10T02:06:52;10.18;;;5.47;;
32872;SDS011;19224;52.462;16.898;2023-05-10T02:09:25;10.78;;;5.55;;
32872;SDS011;19224;52.462;16.898;2023-05-10T02:11:57;9.73;;;4.97;;
32872;SDS011;19224;52.462;16.898;2023-05-10T02:14:31;10.32;;;5.00;;
32872;SDS011;19224;52.462;16.898;2023-05-10T02:17:05;10.68;;;5.15;;
32872;SDS011;19224;52.462;16.898;2023-05-10T02:19:38;11.70;;;5.53;;
32872;SDS011;19224;52.462;16.898;2023-05-10T02:22:10;8.98;;;4.80;;
32872;SDS011;19224;52.462;16.898;2023-05-10T02:24:42;8.05;;;4.83;;
32872;SDS011;19224;52.462;16.898;2023-05-10T02:27:15;9.15;;;5.00;;
32872;SDS011;19224;52.462;16.898;2023-05-10T02:29:46;6.50;;;4.65;;
32872;SDS011;19224;52.462;16.898;2023-05-10T02:32:18;12.98;;;4.90;;
32872;SDS011;19224;52.462;16.898;2023-05-10T02:34:51;9.65;;;5.05;;
32872;SDS011;19224;52.462;16.898;2023-05-10T02:37:23;9.53;;;4.85;;
32872;SDS011;19224;52.462;16.898;2023-05-10T02:39:55;10.35;;;5.08;;
32872;SDS011;19224;52.462;16.898;2023-05-10T02:42:27;10.30;;;4.95;;
32872;SDS011;19224;52.462;16.898;2023-05-10T02:45:02;13.75;;;5.42;;
32872;SDS011;19224;52.462;16.898;2023-05-10T02:47:37;9.28;;;4.90;;
32872;SDS011;19224;52.462;16.898;2023-05-10T02:50:08;14.28;;;5.53;;
32872;SDS011;19224;52.462;16.898;2023-05-10T02:52:39;9.73;;;5.58;;
32872;SDS011;19224;52.462;16.898;2023-05-10T02:55:21;7.55;;;5.22;;
32872;SDS011;19224;52.462;16.898;2023-05-10T02:57:55;11.88;;;5.35;;
32872;SDS011;19224;52.462;16.898;2023-05-10T03:00:28;8.58;;;5.08;;
32872;SDS011;19224;52.462;16.898;2023-05-10T03:03:00;13.40;;;5.17;;
32872;SDS011;19224;52.462;16.898;2023-05-10T03:05:30;7.95;;;5.20;;
32872;SDS011;19224;52.462;16.898;2023-05-10T03:08:01;12.93;;;5.72;;
32872;SDS011;19224;52.462;16.898;2023-05-10T03:10:32;10.23;;;4.62;;
32872;SDS011;19224;52.462;16.898;2023-05-10T03:13:13;11.05;;;5.05;;
32872;SDS011;19224;52.462;16.898;2023-05-10T03:16:06;9.73;;;4.90;;
32872;SDS011;19224;52.462;16.898;2023-05-10T03:18:54;10.43;;;5.00;;
32872;SDS011;19224;52.462;16.898;2023-05-10T03:21:32;10.28;;;5.03;;
32872;SDS011;19224;52.462;16.898;2023-05-10T03:24:08;8.10;;;5.70;;
32872;SDS011;19224;52.462;16.898;2023-05-10T03:26:43;9.93;;;5.40;;
32872;SDS011;19224;52.462;16.898;2023-05-10T03:29:14;13.20;;;5.62;;
32872;SDS011;19224;52.462;16.898;2023-05-10T03:31:46;12.28;;;5.60;;
32872;SDS011;19224;52.462;16.898;2023-05-10T03:34:16;8.15;;;4.95;;
32872;SDS011;19224;52.462;16.898;2023-05-10T03:36:54;10.78;;;5.35;;
32872;SDS011;19224;52.462;16.898;2023-05-10T03:39:27;9.70;;;5.37;;
32872;SDS011;19224;52.462;16.898;2023-05-10T03:41:57;13.35;;;5.50;;
32872;SDS011;19224;52.462;16.898;2023-05-10T03:44:28;12.90;;;5.40;;
32872;SDS011;19224;52.462;16.898;2023-05-10T03:47:01;14.93;;;5.55;;
32872;SDS011;19224;52.462;16.898;2023-05-10T03:49:31;14.15;;;5.37;;
32872;SDS011;19224;52.462;16.898;2023-05-10T03:52:02;11.75;;;5.70;;
32872;SDS011;19224;52.462;16.898;2023-05-10T03:54:33;11.25;;;5.35;;
32872;SDS011;19224;52.462;16.898;2023-05-10T03:57:03;11.35;;;5.60;;
32872;SDS011;19224;52.462;16.898;2023-05-10T03:59:34;10.48;;;5.45;;
32872;SDS011;19224;52.462;16.898;2023-05-10T04:02:04;12.93;;;5.95;;
32872;SDS011;19224;52.462;16.898;2023-05-10T04:04:35;12.25;;;5.08;;
32872;SDS011;19224;52.462;16.898;2023-05-10T04:07:05;11.97;;;5.55;;
32872;SDS011;19224;52.462;16.898;2023-05-10T04:09:37;18.45;;;6.37;;
32872;SDS011;19224;52.462;16.898;2023-05-10T04:12:07;10.30;;;5.50;;
32872;SDS011;19224;52.462;16.898;2023-05-10T04:14:37;11.05;;;5.75;;
32872;SDS011;19224;52.462;16.898;2023-05-10T04:17:08;8.28;;;5.42;;
32872;SDS011;19224;52.462;16.898;2023-05-10T04:19:38;11.28;;;5.75;;
32872;SDS011;19224;52.462;16.898;2023-05-10T04:22:09;11.93;;;5.70;;
32872;SDS011;19224;52.462;16.898;2023-05-10T04:24:39;9.20;;;4.92;;
32872;SDS011;19224;52.462;16.898;2023-05-10T04:27:09;12.55;;;5.60;;
32872;SDS011;19224;52.462;16.898;2023-05-10T04:29:40;10.05;;;5.72;;
32872;SDS011;19224;52.462;16.898;2023-05-10T04:32:10;22.20;;;6.37;;
32872;SDS011;19224;52.462;16.898;2023-05-10T04:34:40;17.60;;;6.05;;
32872;SDS011;19224;52.462;16.898;2023-05-10T04:37:11;14.40;;;5.90;;
32872;SDS011;19224;52.462;16.898;2023-05-10T04:39:41;11.53;;;5.87;;
32872;SDS011;19224;52.462;16.898;2023-05-10T04:42:12;17.98;;;6.85;;
32872;SDS011;19224;52.462;16.898;2023-05-10T04:44:44;11.70;;;5.95;;
32872;SDS011;19224;52.462;16.898;2023-05-10T04:47:14;14.98;;;5.83;;
32872;SDS011;19224;52.462;16.898;2023-05-10T04:49:44;12.37;;;6.08;;
32872;SDS011;19224;52.462;16.898;2023-05-10T04:52:14;10.03;;;5.90;;
32872;SDS011;19224;52.462;16.898;2023-05-10T04:54:45;21.70;;;6.05;;
32872;SDS011;19224;52.462;16.898;2023-05-10T04:57:15;14.50;;;6.12;;
32872;SDS011;19224;52.462;16.898;2023-05-10T04:59:46;17.27;;;7.28;;
32872;SDS011;19224;52.462;16.898;2023-05-10T05:02:16;18.10;;;6.12;;
32872;SDS011;19224;52.462;16.898;2023-05-10T05:04:47;15.28;;;6.60;;
32872;SDS011;19224;52.462;16.898;2023-05-10T05:07:17;20.08;;;7.35;;
32872;SDS011;19224;52.462;16.898;2023-05-10T05:09:47;26.65;;;7.33;;
32872;SDS011;19224;52.462;16.898;2023-05-10T05:12:18;17.17;;;6.17;;
32872;SDS011;19224;52.462;16.898;2023-05-10T05:14:48;15.10;;;6.62;;
32872;SDS011;19224;52.462;16.898;2023-05-10T05:17:18;20.50;;;6.10;;
32872;SDS011;19224;52.462;16.898;2023-05-10T05:19:49;18.40;;;6.47;;
32872;SDS011;19224;52.462;16.898;2023-05-10T05:22:19;24.37;;;7.17;;
32872;SDS011;19224;52.462;16.898;2023-05-10T05:24:51;12.03;;;5.78;;
32872;SDS011;19224;52.462;16.898;2023-05-10T05:27:22;17.70;;;6.00;;
32872;SDS011;19224;52.462;16.898;2023-05-10T05:29:57;17.25;;;5.90;;
32872;SDS011;19224;52.462;16.898;2023-05-10T05:32:35;11.03;;;5.58;;
32872;SDS011;19224;52.462;16.898;2023-05-10T05:35:10;14.35;;;6.28;;
32872;SDS011;19224;52.462;16.898;2023-05-10T05:37:41;14.47;;;7.33;;
32872;SDS011;19224;52.462;16.898;2023-05-10T05:40:14;20.48;;;10.85;;
32872;SDS011;19224;52.462;16.898;2023-05-10T05:42:44;12.30;;;6.25;;
32872;SDS011;19224;52.462;16.898;2023-05-10T05:45:14;15.53;;;6.50;;
32872;SDS011;19224;52.462;16.898;2023-05-10T05:47:45;14.45;;;5.65;;
32872;SDS011;19224;52.462;16.898;2023-05-10T05:50:15;12.93;;;5.90;;
32872;SDS011;19224;52.462;16.898;2023-05-10T05:52:46;11.33;;;5.12;;
32872;SDS011;19224;52.462;16.898;2023-05-10T05:55:16;9.08;;;5.50;;
32872;SDS011;19224;52.462;16.898;2023-05-10T05:57:46;10.70;;;5.75;;
32872;SDS011;19224;52.462;16.898;2023-05-10T06:00:17;10.80;;;6.00;;
32872;SDS011;19224;52.462;16.898;2023-05-10T06:02:48;9.20;;;5.12;;
32872;SDS011;19224;52.462;16.898;2023-05-10T06:05:19;14.93;;;6.10;;
32872;SDS011;19224;52.462;16.898;2023-05-10T06:07:49;10.55;;;5.97;;
32872;SDS011;19224;52.462;16.898;2023-05-10T06:10:19;9.80;;;5.28;;
32872;SDS011;19224;52.462;16.898;2023-05-10T06:12:52;11.50;;;5.20;;
32872;SDS011;19224;52.462;16.898;2023-05-10T06:15:22;16.48;;;8.35;;
32872;SDS011;19224;52.462;16.898;2023-05-10T06:17:53;11.45;;;5.40;;
32872;SDS011;19224;52.462;16.898;2023-05-10T06:20:24;12.10;;;5.22;;
32872;SDS011;19224;52.462;16.898;2023-05-10T06:22:54;11.93;;;5.42;;
32872;SDS011;19224;52.462;16.898;2023-05-10T06:25:25;10.88;;;4.97;;
32872;SDS011;19224;52.462;16.898;2023-05-10T06:27:55;15.23;;;5.10;;
32872;SDS011;19224;52.462;16.898;2023-05-10T06:30:26;19.37;;;5.47;;
32872;SDS011;19224;52.462;16.898;2023-05-10T06:32:56;14.93;;;5.80;;
32872;SDS011;19224;52.462;16.898;2023-05-10T06:35:26;15.10;;;5.25;;
32872;SDS011;19224;52.462;16.898;2023-05-10T06:37:59;8.83;;;4.90;;
32872;SDS011;19224;52.462;16.898;2023-05-10T06:40:29;10.53;;;5.55;;
32872;SDS011;19224;52.462;16.898;2023-05-10T06:43:00;13.13;;;7.25;;
32872;SDS011;19224;52.462;16.898;2023-05-10T06:45:30;12.73;;;5.45;;
32872;SDS011;19224;52.462;16.898;2023-05-10T06:48:00;10.28;;;5.20;;
32872;SDS011;19224;52.462;16.898;2023-05-10T06:50:31;17.77;;;5.50;;
32872;SDS011;19224;52.462;16.898;2023-05-10T06:53:02;11.75;;;5.70;;
32872;SDS011;19224;52.462;16.898;2023-05-10T06:55:32;9.98;;;4.87;;
32872;SDS011;19224;52.462;16.898;2023-05-10T06:58:03;11.22;;;4.90;;
32872;SDS011;19224;52.462;16.898;2023-05-10T07:00:33;13.60;;;4.78;;
32872;SDS011;19224;52.462;16.898;2023-05-10T07:03:06;13.88;;;5.15;;
32872;SDS011;19224;52.462;16.898;2023-05-10T07:05:36;10.38;;;5.00;;
32872;SDS011;19224;52.462;16.898;2023-05-10T07:08:06;9.35;;;4.67;;
32872;SDS011;19224;52.462;16.898;2023-05-10T07:10:36;11.57;;;5.22;;
32872;SDS011;19224;52.462;16.898;2023-05-10T07:13:06;11.05;;;4.95;;
32872;SDS011;19224;52.462;16.898;2023-05-10T07:15:38;8.18;;;5.03;;
32872;SDS011;19224;52.462;16.898;2023-05-10T07:18:08;9.48;;;4.72;;
32872;SDS011;19224;52.462;16.898;2023-05-10T07:20:39;9.80;;;4.53;;
32872;SDS011;19224;52.462;16.898;2023-05-10T07:23:09;12.75;;;4.50;;
32872;SDS011;19224;52.462;16.898;2023-05-10T07:25:39;8.55;;;3.83;;
32872;SDS011;19224;52.462;16.898;2023-05-10T07:28:09;10.25;;;4.35;;
32872;SDS011;19224;52.462;16.898;2023-05-10T07:30:39;8.55;;;4.40;;
32872;SDS011;19224;52.462;16.898;2023-05-10T07:33:12;9.03;;;4.20;;
32872;SDS011;19224;52.462;16.898;2023-05-10T07:35:43;7.03;;;4.08;;
32872;SDS011;19224;52.462;16.898;2023-05-10T07:38:13;9.55;;;4.67;;
32872;SDS011;19224;52.462;16.898;2023-05-10T07:40:45;11.78;;;4.25;;
32872;SDS011;19224;52.462;16.898;2023-05-10T07:43:15;7.50;;;4.33;;
32872;SDS011;19224;52.462;16.898;2023-05-10T07:45:45;6.35;;;4.50;;
32872;SDS011;19224;52.462;16.898;2023-05-10T07:48:16;8.65;;;4.45;;
32872;SDS011;19224;52.462;16.898;2023-05-10T07:50:46;15.28;;;4.75;;
32872;SDS011;19224;52.462;16.898;2023-05-10T07:53:16;11.20;;;4.08;;
32872;SDS011;19224;52.462;16.898;2023-05-10T07:55:50;8.28;;;4.28;;
32872;SDS011;19224;52.462;16.898;2023-05-10T07:58:22;7.35;;;3.80;;
32872;SDS011;19224;52.462;16.898;2023-05-10T08:00:53;6.78;;;4.55;;
32872;SDS011;19224;52.462;16.898;2023-05-10T08:03:24;7.75;;;4.03;;
32872;SDS011;19224;52.462;16.898;2023-05-10T08:05:54;21.02;;;11.28;;
32872;SDS011;19224;52.462;16.898;2023-05-10T08:08:24;15.58;;;7.60;;
32872;SDS011;19224;52.462;16.898;2023-05-10T08:10:54;11.50;;;4.10;;
32872;SDS011;19224;52.462;16.898;2023-05-10T08:13:25;10.15;;;4.17;;
32872;SDS011;19224;52.462;16.898;2023-05-10T08:15:55;6.42;;;4.00;;
32872;SDS011;19224;52.462;16.898;2023-05-10T08:18:25;7.20;;;3.55;;
32872;SDS011;19224;52.462;16.898;2023-05-10T08:20:55;9.80;;;4.10;;
32872;SDS011;19224;52.462;16.898;2023-05-10T08:23:26;8.55;;;3.72;;
32872;SDS011;19224;52.462;16.898;2023-05-10T08:25:56;8.28;;;4.00;;
32872;SDS011;19224;52.462;16.898;2023-05-10T08:28:27;9.55;;;3.90;;
32872;SDS011;19224;52.462;16.898;2023-05-10T08:30:57;7.10;;;3.92;;
32872;SDS011;19224;52.462;16.898;2023-05-10T08:33:27;8.20;;;3.85;;
32872;SDS011;19224;52.462;16.898;2023-05-10T08:35:58;5.80;;;3.80;;
32872;SDS011;19224;52.462;16.898;2023-05-10T08:38:28;11.50;;;4.03;;
32872;SDS011;19224;52.462;16.898;2023-05-10T08:40:58;8.23;;;3.77;;
32872;SDS011;19224;52.462;16.898;2023-05-10T08:43:30;5.20;;;3.42;;
32872;SDS011;19224;52.462;16.898;2023-05-10T08:46:03;7.72;;;3.60;;
32872;SDS011;19224;52.462;16.898;2023-05-10T08:48:36;7.92;;;3.35;;
32872;SDS011;19224;52.462;16.898;2023-05-10T08:51:07;9.63;;;3.15;;
32872;SDS011;19224;52.462;16.898;2023-05-10T08:53:40;6.60;;;3.10;;
32872;SDS011;19224;52.462;16.898;2023-05-10T08:56:12;9.60;;;3.25;;
32872;SDS011;19224;52.462;16.898;2023-05-10T08:58:45;5.75;;;3.17;;
32872;SDS011;19224;52.462;16.898;2023-05-10T09:01:17;6.33;;;3.35;;
32872;SDS011;19224;52.462;16.898;2023-05-10T09:03:49;14.03;;;3.72;;
32872;SDS011;19224;52.462;16.898;2023-05-10T09:06:21;6.05;;;3.12;;
32872;SDS011;19224;52.462;16.898;2023-05-10T09:08:51;10.68;;;3.60;;
32872;SDS011;19224;52.462;16.898;2023-05-10T09:11:22;5.72;;;3.12;;
32872;SDS011;19224;52.462;16.898;2023-05-10T09:13:53;5.47;;;2.52;;
32872;SDS011;19224;52.462;16.898;2023-05-10T09:16:24;6.30;;;3.15;;
32872;SDS011;19224;52.462;16.898;2023-05-10T09:18:54;6.90;;;2.75;;
32872;SDS011;19224;52.462;16.898;2023-05-10T09:21:25;5.25;;;2.90;;
32872;SDS011;19224;52.462;16.898;2023-05-10T09:23:55;7.28;;;2.83;;
32872;SDS011;19224;52.462;16.898;2023-05-10T09:26:27;8.03;;;3.20;;
32872;SDS011;19224;52.462;16.898;2023-05-10T09:28:58;7.55;;;2.83;;
32872;SDS011;19224;52.462;16.898;2023-05-10T09:31:43;10.85;;;3.08;;
32872;SDS011;19224;52.462;16.898;2023-05-10T09:37:12;8.03;;;1.62;;
32872;SDS011;19224;52.462;16.898;2023-05-10T09:39:42;6.53;;;1.90;;
32872;SDS011;19224;52.462;16.898;2023-05-10T09:45:03;6.97;;;2.12;;
32872;SDS011;19224;52.462;16.898;2023-05-10T09:47:35;7.55;;;2.25;;
32872;SDS011;19224;52.462;16.898;2023-05-10T09:50:05;6.72;;;2.50;;
32872;SDS011;19224;52.462;16.898;2023-05-10T09:52:46;5.12;;;2.22;;
32872;SDS011;19224;52.462;16.898;2023-05-10T09:55:22;5.85;;;2.25;;
32872;SDS011;19224;52.462;16.898;2023-05-10T09:57:59;4.00;;;2.20;;
32872;SDS011;19224;52.462;16.898;2023-05-10T10:00:35;3.83;;;2.02;;
32872;SDS011;19224;52.462;16.898;2023-05-10T10:03:15;5.70;;;1.90;;
32872;SDS011;19224;52.462;16.898;2023-05-10T10:05:48;9.55;;;2.45;;
32872;SDS011;19224;52.462;16.898;2023-05-10T10:08:20;19.17;;;3.05;;
32872;SDS011;19224;52.462;16.898;2023-05-10T10:10:51;4.03;;;2.27;;
32872;SDS011;19224;52.462;16.898;2023-05-10T10:13:21;11.90;;;2.50;;
32872;SDS011;19224;52.462;16.898;2023-05-10T10:15:52;10.18;;;2.27;;
32872;SDS011;19224;52.462;16.898;2023-05-10T10:18:24;5.25;;;2.25;;
32872;SDS011;19224;52.462;16.898;2023-05-10T10:20:56;4.03;;;2.17;;
32872;SDS011;19224;52.462;16.898;2023-05-10T10:23:27;2.77;;;2.20;;
32872;SDS011;19224;52.462;16.898;2023-05-10T10:25:57;8.75;;;2.65;;
32872;SDS011;19224;52.462;16.898;2023-05-10T10:31:38;6.75;;;2.75;;
32872;SDS011;19224;52.462;16.898;2023-05-10T10:34:25;5.58;;;2.30;;
32872;SDS011;19224;52.462;16.898;2023-05-10T10:36:57;3.87;;;2.10;;
32872;SDS011;19224;52.462;16.898;2023-05-10T10:39:30;3.45;;;2.27;;
32872;SDS011;19224;52.462;16.898;2023-05-10T10:42:03;5.80;;;2.80;;
32872;SDS011;19224;52.462;16.898;2023-05-10T10:44:35;9.68;;;2.58;;
32872;SDS011;19224;52.462;16.898;2023-05-10T10:52:39;12.65;;;2.37;;
32872;SDS011;19224;52.462;16.898;2023-05-10T10:55:15;4.53;;;2.30;;
32872;SDS011;19224;52.462;16.898;2023-05-10T10:57:54;7.90;;;2.17;;
32872;SDS011;19224;52.462;16.898;2023-05-10T11:00:36;8.28;;;1.98;;
32872;SDS011;19224;52.462;16.898;2023-05-10T11:03:08;10.45;;;2.10;;
32872;SDS011;19224;52.462;16.898;2023-05-10T11:05:51;3.35;;;1.90;;
32872;SDS011;19224;52.462;16.898;2023-05-10T11:08:30;4.78;;;2.00;;
32872;SDS011;19224;52.462;16.898;2023-05-10T11:11:04;4.15;;;1.92;;
32872;SDS011;19224;52.462;16.898;2023-05-10T11:13:39;12.93;;;2.30;;
32872;SDS011;19224;52.462;16.898;2023-05-10T11:16:20;8.20;;;2.10;;
32872;SDS011;19224;52.462;16.898;2023-05-10T11:21:33;10.10;;;2.45;;
32872;SDS011;19224;52.462;16.898;2023-05-10T11:24:17;6.05;;;2.50;;
32872;SDS011;19224;52.462;16.898;2023-05-10T11:26:50;4.12;;;2.05;;
32872;SDS011;19224;52.462;16.898;2023-05-10T11:29:22;2.08;;;1.77;;
32872;SDS011;19224;52.462;16.898;2023-05-10T11:31:56;6.60;;;2.55;;
32872;SDS011;19224;52.462;16.898;2023-05-10T11:34:28;7.72;;;2.65;;
32872;SDS011;19224;52.462;16.898;2023-05-10T11:37:03;4.05;;;2.42;;
32872;SDS011;19224;52.462;16.898;2023-05-10T11:39:33;8.15;;;2.33;;
32872;SDS011;19224;52.462;16.898;2023-05-10T11:42:03;6.95;;;2.22;;
32872;SDS011;19224;52.462;16.898;2023-05-10T11:44:35;18.90;;;10.53;;
32872;SDS011;19224;52.462;16.898;2023-05-10T11:47:05;6.10;;;2.90;;
32872;SDS011;19224;52.462;16.898;2023-05-10T11:49:36;9.08;;;2.98;;
32872;SDS011;19224;52.462;16.898;2023-05-10T11:52:07;6.10;;;2.37;;
32872;SDS011;19224;52.462;16.898;2023-05-10T11:54:50;5.65;;;2.37;;
32872;SDS011;19224;52.462;16.898;2023-05-10T11:57:25;8.65;;;2.65;;
32872;SDS011;19224;52.462;16.898;2023-05-10T11:59:56;6.78;;;2.45;;
32872;SDS011;19224;52.462;16.898;2023-05-10T12:02:28;11.18;;;2.67;;
32872;SDS011;19224;52.462;16.898;2023-05-10T12:04:59;6.92;;;2.55;;
32872;SDS011;19224;52.462;16.898;2023-05-10T12:07:31;3.10;;;2.40;;
32872;SDS011;19224;52.462;16.898;2023-05-10T12:12:42;7.87;;;2.37;;
32872;SDS011;19224;52.462;16.898;2023-05-10T12:15:21;5.78;;;2.30;;
32872;SDS011;19224;52.462;16.898;2023-05-10T12:17:53;7.65;;;2.25;;
32872;SDS011;19224;52.462;16.898;2023-05-10T12:20:26;3.22;;;2.37;;
32872;SDS011;19224;52.462;16.898;2023-05-10T12:22:57;6.78;;;2.22;;
32872;SDS011;19224;52.462;16.898;2023-05-10T12:25:30;6.00;;;2.50;;
32872;SDS011;19224;52.462;16.898;2023-05-10T12:28:07;6.55;;;2.33;;
32872;SDS011;19224;52.462;16.898;2023-05-10T12:30:38;6.85;;;2.35;;
32872;SDS011;19224;52.462;16.898;2023-05-10T12:33:12;14.25;;;2.85;;
32872;SDS011;19224;52.462;16.898;2023-05-10T12:35:45;3.70;;;2.12;;
32872;SDS011;19224;52.462;16.898;2023-05-10T12:40:58;4.87;;;2.33;;
32872;SDS011;19224;52.462;16.898;2023-05-10T12:43:32;4.50;;;2.37;;
32872;SDS011;19224;52.462;16.898;2023-05-10T12:46:11;7.50;;;2.55;;
32872;SDS011;19224;52.462;16.898;2023-05-10T12:48:44;5.33;;;2.15;;
32872;SDS011;19224;52.462;16.898;2023-05-10T12:51:16;10.55;;;2.92;;
32872;SDS011;19224;52.462;16.898;2023-05-10T12:53:47;5.03;;;2.65;;
32872;SDS011;19224;52.462;16.898;2023-05-10T12:56:18;3.17;;;2.40;;
32872;SDS011;19224;52.462;16.898;2023-05-10T12:58:48;8.45;;;2.98;;
32872;SDS011;19224;52.462;16.898;2023-05-10T13:01:18;4.10;;;2.12;;
32872;SDS011;19224;52.462;16.898;2023-05-10T13:03:49;3.75;;;2.10;;
32872;SDS011;19224;52.462;16.898;2023-05-10T13:06:19;8.38;;;2.75;;
32872;SDS011;19224;52.462;16.898;2023-05-10T13:08:49;3.90;;;2.17;;
32872;SDS011;19224;52.462;16.898;2023-05-10T13:11:20;5.28;;;2.00;;
32872;SDS011;19224;52.462;16.898;2023-05-10T13:13:50;5.55;;;2.20;;
32872;SDS011;19224;52.462;16.898;2023-05-10T13:16:21;6.83;;;2.40;;
32872;SDS011;19224;52.462;16.898;2023-05-10T13:18:51;5.50;;;2.40;;
32872;SDS011;19224;52.462;16.898;2023-05-10T13:21:21;8.55;;;2.50;;
32872;SDS011;19224;52.462;16.898;2023-05-10T13:23:52;8.55;;;2.42;;
32872;SDS011;19224;52.462;16.898;2023-05-10T13:26:23;9.50;;;2.47;;
32872;SDS011;19224;52.462;16.898;2023-05-10T13:28:54;5.50;;;3.20;;
32872;SDS011;19224;52.462;16.898;2023-05-10T13:31:24;5.85;;;3.20;;
32872;SDS011;19224;52.462;16.898;2023-05-10T13:33:55;5.70;;;2.25;;
32872;SDS011;19224;52.462;16.898;2023-05-10T13:36:25;4.67;;;2.30;;
32872;SDS011;19224;52.462;16.898;2023-05-10T13:38:55;8.50;;;2.98;;
32872;SDS011;19224;52.462;16.898;2023-05-10T13:41:26;6.58;;;3.58;;
32872;SDS011;19224;52.462;16.898;2023-05-10T13:43:56;8.45;;;2.83;;
32872;SDS011;19224;52.462;16.898;2023-05-10T13:46:26;11.60;;;2.58;;
32872;SDS011;19224;52.462;16.898;2023-05-10T13:48:58;6.53;;;2.50;;
32872;SDS011;19224;52.462;16.898;2023-05-10T13:51:28;5.40;;;2.42;;
32872;SDS011;19224;52.462;16.898;2023-05-10T13:53:59;3.95;;;2.22;;
32872;SDS011;19224;52.462;16.898;2023-05-10T13:56:31;7.33;;;2.40;;
32872;SDS011;19224;52.462;16.898;2023-05-10T13:59:01;3.75;;;2.27;;
32872;SDS011;19224;52.462;16.898;2023-05-10T14:01:31;4.78;;;2.10;;
32872;SDS011;19224;52.462;16.898;2023-05-10T14:04:02;7.03;;;2.55;;
32872;SDS011;19224;52.462;16.898;2023-05-10T14:06:32;5.00;;;2.25;;
32872;SDS011;19224;52.462;16.898;2023-05-10T14:09:03;9.63;;;2.30;;
32872;SDS011;19224;52.462;16.898;2023-05-10T14:11:33;6.95;;;2.17;;
32872;SDS011;19224;52.462;16.898;2023-05-10T14:14:03;5.78;;;2.52;;
32872;SDS011;19224;52.462;16.898;2023-05-10T14:16:33;3.72;;;2.20;;
32872;SDS011;19224;52.462;16.898;2023-05-10T14:19:03;8.15;;;2.70;;
32872;SDS011;19224;52.462;16.898;2023-05-10T14:21:33;8.80;;;2.98;;
32872;SDS011;19224;52.462;16.898;2023-05-10T14:24:04;5.00;;;2.80;;
32872;SDS011;19224;52.462;16.898;2023-05-10T14:26:35;8.98;;;2.55;;
32872;SDS011;19224;52.462;16.898;2023-05-10T14:29:05;5.33;;;2.60;;
32872;SDS011;19224;52.462;16.898;2023-05-10T14:31:36;4.80;;;2.60;;
32872;SDS011;19224;52.462;16.898;2023-05-10T14:34:06;9.45;;;2.80;;
32872;SDS011;19224;52.462;16.898;2023-05-10T14:36:36;4.25;;;2.50;;
32872;SDS011;19224;52.462;16.898;2023-05-10T14:39:07;4.78;;;2.50;;
32872;SDS011;19224;52.462;16.898;2023-05-10T14:41:38;5.58;;;2.15;;
32872;SDS011;19224;52.462;16.898;2023-05-10T14:44:12;6.33;;;2.52;;
32872;SDS011;19224;52.462;16.898;2023-05-10T14:46:43;4.30;;;2.55;;
32872;SDS011;19224;52.462;16.898;2023-05-10T14:49:13;7.47;;;2.50;;
32872;SDS011;19224;52.462;16.898;2023-05-10T14:51:43;7.62;;;2.90;;
32872;SDS011;19224;52.462;16.898;2023-05-10T14:54:14;6.83;;;3.75;;
32872;SDS011;19224;52.462;16.898;2023-05-10T14:56:44;6.58;;;2.83;;
32872;SDS011;19224;52.462;16.898;2023-05-10T14:59:16;8.78;;;3.30;;
32872;SDS011;19224;52.462;16.898;2023-05-10T15:01:47;16.17;;;8.83;;
32872;SDS011;19224;52.462;16.898;2023-05-10T15:04:17;5.62;;;3.30;;
32872;SDS011;19224;52.462;16.898;2023-05-10T15:06:48;11.12;;;3.00;;
32872;SDS011;19224;52.462;16.898;2023-05-10T15:09:19;8.35;;;3.10;;
32872;SDS011;19224;52.462;16.898;2023-05-10T15:11:50;5.12;;;2.50;;
32872;SDS011;19224;52.462;16.898;2023-05-10T15:14:20;4.90;;;2.70;;
32872;SDS011;19224;52.462;16.898;2023-05-10T15:16:51;5.22;;;2.67;;
32872;SDS011;19224;52.462;16.898;2023-05-10T15:19:24;9.83;;;3.30;;
32872;SDS011;19224;52.462;16.898;2023-05-10T15:21:56;3.83;;;2.87;;
32872;SDS011;19224;52.462;16.898;2023-05-10T15:24:26;5.53;;;2.85;;
32872;SDS011;19224;52.462;16.898;2023-05-10T15:26:57;11.65;;;2.98;;
32872;SDS011;19224;52.462;16.898;2023-05-10T15:29:28;6.17;;;2.83;;